sensor_id;sensor_type;location;lat;lon;timestamp;pressure;altitude;pressure_sealevel;temperature;humidity
53440;BME280;39333;47.044;15.080;2022-09-24T00:01:24;96249.63;;;9.14;62.14
53440;BME280;39333;47.044;15.080;2022-09-24T00:04:03;96242.03;;;8.94;62.91
53440;BME280;39333;47.044;15.080;2022-09-24T00:06:35;96240.44;;;8.82;63.17
53440;BME280;39333;47.044;15.080;2022-09-24T00:09:02;96237.69;;;8.88;62.89
53440;BME280;39333;47.044;15.080;2022-09-24T00:11:30;96235.38;;;8.92;62.80
53440;BME280;39333;47.044;15.080;2022-09-24T00:13:57;96233.41;;;8.99;62.50
53440;BME280;39333;47.044;15.080;2022-09-24T00:16:27;96235.22;;;9.10;61.98
53440;BME280;39333;47.044;15.080;2022-09-24T00:18:57;96230.44;;;9.07;61.95
53440;BME280;39333;47.044;15.080;2022-09-24T00:21:27;96228.81;;;9.06;61.65
53440;BME280;39333;47.044;15.080;2022-09-24T00:23:56;96226.19;;;9.06;61.54
53440;BME280;39333;47.044;15.080;2022-09-24T00:26:24;96233.56;;;8.92;61.53
53440;BME280;39333;47.044;15.080;2022-09-24T00:29:12;96225.84;;;8.91;62.14
53440;BME280;39333;47.044;15.080;2022-09-24T00:31:39;96230.88;;;8.81;62.30
53440;BME280;39333;47.044;15.080;2022-09-24T00:34:06;96235.13;;;8.82;62.48
53440;BME280;39333;47.044;15.080;2022-09-24T00:36:33;96230.78;;;8.87;62.50
53440;BME280;39333;47.044;15.080;2022-09-24T00:39:00;96225.13;;;8.95;61.98
53440;BME280;39333;47.044;15.080;2022-09-24T00:41:32;96220.56;;;8.91;61.86
53440;BME280;39333;47.044;15.080;2022-09-24T00:44:00;96220.53;;;8.79;62.11
53440;BME280;39333;47.044;15.080;2022-09-24T00:46:32;96221.94;;;8.70;62.52
53440;BME280;39333;47.044;15.080;2022-09-24T00:49:05;96214.59;;;8.60;62.56
53440;BME280;39333;47.044;15.080;2022-09-24T00:51:36;96209.97;;;8.67;62.33
53440;BME280;39333;47.044;15.080;2022-09-24T00:54:06;96205.59;;;8.61;62.21
53440;BME280;39333;47.044;15.080;2022-09-24T00:56:37;96204.56;;;8.39;63.23
53440;BME280;39333;47.044;15.080;2022-09-24T00:59:06;96210.31;;;8.48;62.83
53440;BME280;39333;47.044;15.080;2022-09-24T01:01:36;96206.53;;;8.55;62.21
53440;BME280;39333;47.044;15.080;2022-09-24T01:04:03;96199.28;;;8.51;62.42
53440;BME280;39333;47.044;15.080;2022-09-24T01:06:31;96192.97;;;8.52;62.51
53440;BME280;39333;47.044;15.080;2022-09-24T01:08:59;96186.75;;;8.46;62.89
53440;BME280;39333;47.044;15.080;2022-09-24T01:16:49;96182.59;;;8.27;63.20
53440;BME280;39333;47.044;15.080;2022-09-24T01:25:06;96180.63;;;8.22;63.10
53440;BME280;39333;47.044;15.080;2022-09-24T01:30:46;96168.25;;;8.34;62.76
53440;BME280;39333;47.044;15.080;2022-09-24T01:33:19;96178.03;;;8.34;62.78
53440;BME280;39333;47.044;15.080;2022-09-24T01:35:53;96170.41;;;8.26;62.79
53440;BME280;39333;47.044;15.080;2022-09-24T01:38:30;96169.25;;;8.22;62.98
53440;BME280;39333;47.044;15.080;2022-09-24T01:41:02;96173.25;;;8.13;63.00
53440;BME280;39333;47.044;15.080;2022-09-24T01:43:29;96165.31;;;8.13;63.33
53440;BME280;39333;47.044;15.080;2022-09-24T01:46:00;96166.81;;;8.08;63.52
53440;BME280;39333;47.044;15.080;2022-09-24T01:48:28;96166.47;;;8.05;63.88
53440;BME280;39333;47.044;15.080;2022-09-24T01:51:11;96162.47;;;7.61;65.07
53440;BME280;39333;47.044;15.080;2022-09-24T01:57:05;96152.41;;;7.81;64.18
53440;BME280;39333;47.044;15.080;2022-09-24T01:59:16;96155.63;;;7.83;64.08
53440;BME280;39333;47.044;15.080;2022-09-24T02:02:01;96165.16;;;7.84;64.01
53440;BME280;39333;47.044;15.080;2022-09-24T02:04:34;96156.88;;;7.81;63.96
53440;BME280;39333;47.044;15.080;2022-09-24T02:07:09;96151.34;;;7.70;64.75
53440;BME280;39333;47.044;15.080;2022-09-24T02:09:41;96145.06;;;7.83;63.92
53440;BME280;39333;47.044;15.080;2022-09-24T02:12:15;96151.28;;;7.77;64.20
53440;BME280;39333;47.044;15.080;2022-09-24T02:14:47;96146.09;;;7.82;64.44
53440;BME280;39333;47.044;15.080;2022-09-24T02:17:14;96152.63;;;7.80;64.37
53440;BME280;39333;47.044;15.080;2022-09-24T02:19:42;96135.69;;;7.87;64.52
53440;BME280;39333;47.044;15.080;2022-09-24T02:22:12;96133.94;;;7.81;64.72
53440;BME280;39333;47.044;15.080;2022-09-24T02:24:48;96133.63;;;7.89;64.00
53440;BME280;39333;47.044;15.080;2022-09-24T02:27:16;96132.72;;;7.95;63.67
53440;BME280;39333;47.044;15.080;2022-09-24T02:29:44;96138.31;;;7.87;63.87
53440;BME280;39333;47.044;15.080;2022-09-24T02:32:14;96113.75;;;7.75;64.00
53440;BME280;39333;47.044;15.080;2022-09-24T02:34:50;96116.09;;;7.65;64.74
53440;BME280;39333;47.044;15.080;2022-09-24T02:37:22;96124.97;;;7.70;64.39
53440;BME280;39333;47.044;15.080;2022-09-24T02:39:50;96123.72;;;7.73;63.97
53440;BME280;39333;47.044;15.080;2022-09-24T02:42:18;96122.75;;;7.56;64.47
53440;BME280;39333;47.044;15.080;2022-09-24T02:44:45;96121.00;;;7.50;64.51
53440;BME280;39333;47.044;15.080;2022-09-24T02:47:13;96121.13;;;7.55;64.83
53440;BME280;39333;47.044;15.080;2022-09-24T02:49:40;96115.94;;;7.48;64.85
53440;BME280;39333;47.044;15.080;2022-09-24T02:52:06;96119.94;;;7.39;65.13
53440;BME280;39333;47.044;15.080;2022-09-24T02:54:33;96119.28;;;7.44;64.85
53440;BME280;39333;47.044;15.080;2022-09-24T02:57:00;96120.19;;;7.49;64.88
53440;BME280;39333;47.044;15.080;2022-09-24T02:59:26;96126.59;;;7.42;64.57
53440;BME280;39333;47.044;15.080;2022-09-24T03:01:53;96125.34;;;7.44;64.84
53440;BME280;39333;47.044;15.080;2022-09-24T03:04:20;96116.22;;;7.58;64.28
53440;BME280;39333;47.044;15.080;2022-09-24T03:06:47;96112.91;;;7.63;64.14
53440;BME280;39333;47.044;15.080;2022-09-24T03:09:13;96110.59;;;7.66;63.85
53440;BME280;39333;47.044;15.080;2022-09-24T03:11:40;96104.88;;;7.69;64.01
53440;BME280;39333;47.044;15.080;2022-09-24T03:14:07;96107.63;;;7.63;63.84
53440;BME280;39333;47.044;15.080;2022-09-24T03:16:34;96103.63;;;7.60;64.40
53440;BME280;39333;47.044;15.080;2022-09-24T03:19:00;96113.47;;;7.65;64.36
53440;BME280;39333;47.044;15.080;2022-09-24T03:21:27;96098.78;;;7.57;64.35
53440;BME280;39333;47.044;15.080;2022-09-24T03:23:54;96106.84;;;7.62;64.43
53440;BME280;39333;47.044;15.080;2022-09-24T03:26:21;96104.72;;;7.53;65.02
53440;BME280;39333;47.044;15.080;2022-09-24T03:28:48;96110.41;;;7.38;66.21
53440;BME280;39333;47.044;15.080;2022-09-24T03:31:14;96111.53;;;7.30;66.04
53440;BME280;39333;47.044;15.080;2022-09-24T03:33:46;96101.56;;;7.32;65.31
53440;BME280;39333;47.044;15.080;2022-09-24T03:36:17;96106.66;;;7.46;65.78
53440;BME280;39333;47.044;15.080;2022-09-24T03:38:53;96092.53;;;7.40;65.96
53440;BME280;39333;47.044;15.080;2022-09-24T03:41:23;96100.53;;;7.33;65.33
53440;BME280;39333;47.044;15.080;2022-09-24T03:43:50;96094.94;;;7.42;65.94
53440;BME280;39333;47.044;15.080;2022-09-24T03:46:16;96087.94;;;7.35;66.64
53440;BME280;39333;47.044;15.080;2022-09-24T03:48:44;96078.22;;;7.48;65.53
53440;BME280;39333;47.044;15.080;2022-09-24T03:51:17;96078.94;;;7.55;65.52
53440;BME280;39333;47.044;15.080;2022-09-24T03:53:46;96080.28;;;7.46;65.94
53440;BME280;39333;47.044;15.080;2022-09-24T03:56:13;96072.09;;;7.35;66.01
53440;BME280;39333;47.044;15.080;2022-09-24T03:58:40;96078.28;;;7.29;65.95
53440;BME280;39333;47.044;15.080;2022-09-24T04:01:08;96074.84;;;7.29;65.87
53440;BME280;39333;47.044;15.080;2022-09-24T04:03:36;96070.28;;;7.36;66.04
53440;BME280;39333;47.044;15.080;2022-09-24T04:06:04;96069.75;;;7.46;65.66
53440;BME280;39333;47.044;15.080;2022-09-24T04:08:31;96058.28;;;7.52;64.69
53440;BME280;39333;47.044;15.080;2022-09-24T04:10:58;96054.13;;;7.44;65.20
53440;BME280;39333;47.044;15.080;2022-09-24T04:13:25;96056.56;;;7.46;65.26
53440;BME280;39333;47.044;15.080;2022-09-24T04:15:52;96064.94;;;7.54;65.12
53440;BME280;39333;47.044;15.080;2022-09-24T04:18:20;96050.34;;;7.52;64.97
53440;BME280;39333;47.044;15.080;2022-09-24T04:20:47;96048.06;;;7.44;65.09
53440;BME280;39333;47.044;15.080;2022-09-24T04:23:14;96058.03;;;7.42;65.62
53440;BME280;39333;47.044;15.080;2022-09-24T04:25:40;96057.00;;;7.43;66.01
53440;BME280;39333;47.044;15.080;2022-09-24T04:28:08;96064.47;;;7.46;65.64
53440;BME280;39333;47.044;15.080;2022-09-24T04:30:35;96053.28;;;7.32;65.85
53440;BME280;39333;47.044;15.080;2022-09-24T04:33:03;96063.31;;;7.42;65.45
53440;BME280;39333;47.044;15.080;2022-09-24T04:35:31;96055.41;;;7.53;65.79
53440;BME280;39333;47.044;15.080;2022-09-24T04:37:58;96050.25;;;7.58;65.04
53440;BME280;39333;47.044;15.080;2022-09-24T04:40:26;96048.09;;;7.67;64.96
53440;BME280;39333;47.044;15.080;2022-09-24T04:42:53;96041.91;;;7.61;65.16
53440;BME280;39333;47.044;15.080;2022-09-24T04:45:20;96036.25;;;7.46;67.22
53440;BME280;39333;47.044;15.080;2022-09-24T04:47:48;96030.56;;;7.31;67.33
53440;BME280;39333;47.044;15.080;2022-09-24T04:50:28;96027.31;;;6.76;70.30
53440;BME280;39333;47.044;15.080;2022-09-24T04:52:59;96025.22;;;6.96;69.22
53440;BME280;39333;47.044;15.080;2022-09-24T04:55:26;96038.09;;;7.16;68.15
53440;BME280;39333;47.044;15.080;2022-09-24T04:57:56;96035.16;;;7.24;67.79
53440;BME280;39333;47.044;15.080;2022-09-24T05:00:23;96039.88;;;7.33;67.68
53440;BME280;39333;47.044;15.080;2022-09-24T05:02:55;96045.53;;;7.49;67.09
53440;BME280;39333;47.044;15.080;2022-09-24T05:05:23;96048.16;;;7.49;67.27
53440;BME280;39333;47.044;15.080;2022-09-24T05:07:50;96045.28;;;7.38;67.78
53440;BME280;39333;47.044;15.080;2022-09-24T05:10:18;96050.91;;;7.42;67.78
53440;BME280;39333;47.044;15.080;2022-09-24T05:12:44;96044.84;;;7.42;66.90
53440;BME280;39333;47.044;15.080;2022-09-24T05:15:11;96052.41;;;7.50;66.39
53440;BME280;39333;47.044;15.080;2022-09-24T05:17:38;96055.41;;;7.53;67.17
53440;BME280;39333;47.044;15.080;2022-09-24T05:20:06;96052.69;;;7.60;66.94
53440;BME280;39333;47.044;15.080;2022-09-24T05:22:33;96050.03;;;7.60;67.45
53440;BME280;39333;47.044;15.080;2022-09-24T05:25:02;96060.47;;;7.66;67.03
53440;BME280;39333;47.044;15.080;2022-09-24T05:27:29;96079.88;;;7.72;67.57
53440;BME280;39333;47.044;15.080;2022-09-24T05:29:55;96072.19;;;7.70;66.95
53440;BME280;39333;47.044;15.080;2022-09-24T05:32:22;96080.56;;;7.67;67.56
53440;BME280;39333;47.044;15.080;2022-09-24T05:34:49;96071.91;;;7.49;69.57
53440;BME280;39333;47.044;15.080;2022-09-24T05:37:16;96080.19;;;7.52;68.32
53440;BME280;39333;47.044;15.080;2022-09-24T05:39:43;96095.69;;;7.60;69.23
53440;BME280;39333;47.044;15.080;2022-09-24T05:42:10;96087.22;;;7.70;69.16
53440;BME280;39333;47.044;15.080;2022-09-24T05:44:39;96088.25;;;7.81;67.70
53440;BME280;39333;47.044;15.080;2022-09-24T05:47:07;96081.72;;;7.83;67.08
53440;BME280;39333;47.044;15.080;2022-09-24T05:49:34;96087.25;;;7.93;67.48
53440;BME280;39333;47.044;15.080;2022-09-24T05:52:00;96086.69;;;7.91;66.96
53440;BME280;39333;47.044;15.080;2022-09-24T05:54:27;96093.91;;;7.96;67.14
53440;BME280;39333;47.044;15.080;2022-09-24T05:56:54;96090.13;;;8.03;67.45
53440;BME280;39333;47.044;15.080;2022-09-24T05:59:20;96086.34;;;8.11;67.91
53440;BME280;39333;47.044;15.080;2022-09-24T06:01:47;96087.84;;;8.19;67.14
53440;BME280;39333;47.044;15.080;2022-09-24T06:04:14;96084.59;;;8.28;69.35
53440;BME280;39333;47.044;15.080;2022-09-24T06:06:41;96083.16;;;8.32;70.03
53440;BME280;39333;47.044;15.080;2022-09-24T06:09:08;96090.16;;;8.50;68.59
53440;BME280;39333;47.044;15.080;2022-09-24T06:11:35;96088.75;;;8.71;68.25
53440;BME280;39333;47.044;15.080;2022-09-24T06:14:06;96081.00;;;8.93;66.95
53440;BME280;39333;47.044;15.080;2022-09-24T06:16:34;96081.94;;;9.15;66.50
53440;BME280;39333;47.044;15.080;2022-09-24T06:19:01;96071.63;;;9.30;67.91
53440;BME280;39333;47.044;15.080;2022-09-24T06:21:28;96065.09;;;9.50;66.06
53440;BME280;39333;47.044;15.080;2022-09-24T06:23:55;96062.88;;;9.75;66.78
53440;BME280;39333;47.044;15.080;2022-09-24T06:26:22;96064.09;;;10.01;66.20
53440;BME280;39333;47.044;15.080;2022-09-24T06:28:51;96069.97;;;10.20;66.30
53440;BME280;39333;47.044;15.080;2022-09-24T06:31:18;96071.56;;;10.37;66.10
53440;BME280;39333;47.044;15.080;2022-09-24T06:33:44;96069.88;;;10.70;66.68
53440;BME280;39333;47.044;15.080;2022-09-24T06:36:11;96065.25;;;10.82;66.54
53440;BME280;39333;47.044;15.080;2022-09-24T06:38:38;96071.13;;;10.84;64.94
53440;BME280;39333;47.044;15.080;2022-09-24T06:41:06;96069.81;;;10.86;64.39
53440;BME280;39333;47.044;15.080;2022-09-24T06:43:33;96071.97;;;10.90;64.72
53440;BME280;39333;47.044;15.080;2022-09-24T06:46:00;96068.50;;;10.89;64.59
53440;BME280;39333;47.044;15.080;2022-09-24T06:48:27;96061.41;;;10.95;64.62
53440;BME280;39333;47.044;15.080;2022-09-24T06:50:54;96058.06;;;11.04;66.42
53440;BME280;39333;47.044;15.080;2022-09-24T06:53:22;96065.78;;;11.06;66.50
53440;BME280;39333;47.044;15.080;2022-09-24T06:55:49;96067.44;;;11.12;66.75
53440;BME280;39333;47.044;15.080;2022-09-24T06:58:18;96060.94;;;11.25;64.17
53440;BME280;39333;47.044;15.080;2022-09-24T07:01:12;96063.06;;;11.49;63.75
53440;BME280;39333;47.044;15.080;2022-09-24T07:03:39;96059.78;;;11.69;64.25
53440;BME280;39333;47.044;15.080;2022-09-24T07:06:06;96054.41;;;11.91;64.50
53440;BME280;39333;47.044;15.080;2022-09-24T07:08:32;96053.03;;;12.20;64.26
53440;BME280;39333;47.044;15.080;2022-09-24T07:10:59;96058.50;;;12.41;62.57
53440;BME280;39333;47.044;15.080;2022-09-24T07:13:26;96059.03;;;12.43;62.95
53440;BME280;39333;47.044;15.080;2022-09-24T07:15:53;96054.91;;;12.62;62.72
53440;BME280;39333;47.044;15.080;2022-09-24T07:18:20;96064.09;;;12.96;61.19
53440;BME280;39333;47.044;15.080;2022-09-24T07:20:51;96065.28;;;13.26;59.55
53440;BME280;39333;47.044;15.080;2022-09-24T07:23:18;96064.28;;;13.52;58.37
53440;BME280;39333;47.044;15.080;2022-09-24T07:25:44;96055.78;;;13.71;58.71
53440;BME280;39333;47.044;15.080;2022-09-24T07:28:12;96057.66;;;13.85;58.03
53440;BME280;39333;47.044;15.080;2022-09-24T07:30:39;96051.00;;;14.08;58.14
53440;BME280;39333;47.044;15.080;2022-09-24T07:33:06;96054.94;;;14.36;57.51
53440;BME280;39333;47.044;15.080;2022-09-24T07:35:36;96059.75;;;14.49;57.01
53440;BME280;39333;47.044;15.080;2022-09-24T07:38:07;96060.78;;;14.74;55.57
53440;BME280;39333;47.044;15.080;2022-09-24T07:40:34;96069.00;;;14.82;55.41
53440;BME280;39333;47.044;15.080;2022-09-24T07:43:01;96065.78;;;14.90;53.68
53440;BME280;39333;47.044;15.080;2022-09-24T07:45:28;96066.22;;;15.13;54.85
53440;BME280;39333;47.044;15.080;2022-09-24T07:47:59;96059.91;;;15.43;53.56
53440;BME280;39333;47.044;15.080;2022-09-24T07:50:28;96057.69;;;15.65;54.65
53440;BME280;39333;47.044;15.080;2022-09-24T07:52:55;96051.91;;;15.87;53.36
53440;BME280;39333;47.044;15.080;2022-09-24T07:55:22;96053.91;;;16.05;53.31
53440;BME280;39333;47.044;15.080;2022-09-24T07:57:51;96055.69;;;16.15;52.44
53440;BME280;39333;47.044;15.080;2022-09-24T08:00:19;96060.63;;;16.31;51.09
53440;BME280;39333;47.044;15.080;2022-09-24T08:02:47;96057.06;;;16.41;50.76
53440;BME280;39333;47.044;15.080;2022-09-24T08:05:14;96060.03;;;16.68;50.63
53440;BME280;39333;47.044;15.080;2022-09-24T08:07:54;96054.56;;;17.02;51.45
53440;BME280;39333;47.044;15.080;2022-09-24T08:10:26;96047.50;;;17.30;49.18
53440;BME280;39333;47.044;15.080;2022-09-24T08:12:53;96049.47;;;17.43;50.27
53440;BME280;39333;47.044;15.080;2022-09-24T08:15:22;96044.78;;;17.35;49.94
53440;BME280;39333;47.044;15.080;2022-09-24T08:17:49;96048.72;;;17.38;50.66
53440;BME280;39333;47.044;15.080;2022-09-24T08:20:16;96043.59;;;17.60;48.83
53440;BME280;39333;47.044;15.080;2022-09-24T08:22:43;96042.69;;;17.70;49.55
53440;BME280;39333;47.044;15.080;2022-09-24T08:25:10;96044.94;;;17.81;50.03
53440;BME280;39333;47.044;15.080;2022-09-24T08:27:36;96041.78;;;17.93;48.64
53440;BME280;39333;47.044;15.080;2022-09-24T08:30:04;96039.44;;;18.05;49.36
53440;BME280;39333;47.044;15.080;2022-09-24T08:32:31;96039.63;;;18.28;49.13
53440;BME280;39333;47.044;15.080;2022-09-24T08:34:57;96032.34;;;18.28;48.13
53440;BME280;39333;47.044;15.080;2022-09-24T08:37:26;96034.09;;;18.19;47.47
53440;BME280;39333;47.044;15.080;2022-09-24T08:39:53;96035.38;;;18.08;48.73
53440;BME280;39333;47.044;15.080;2022-09-24T08:42:30;96021.06;;;17.99;49.18
53440;BME280;39333;47.044;15.080;2022-09-24T08:45:01;96031.66;;;17.90;49.96
53440;BME280;39333;47.044;15.080;2022-09-24T08:50:33;96032.53;;;16.87;52.69
53440;BME280;39333;47.044;15.080;2022-09-24T08:53:06;96033.59;;;16.86;52.23
53440;BME280;39333;47.044;15.080;2022-09-24T08:55:41;96037.13;;;16.81;52.33
53440;BME280;39333;47.044;15.080;2022-09-24T09:00:46;96030.31;;;16.70;53.73
53440;BME280;39333;47.044;15.080;2022-09-24T09:06:02;96031.50;;;17.25;53.68
53440;BME280;39333;47.044;15.080;2022-09-24T09:08:34;96037.94;;;17.62;51.75
53440;BME280;39333;47.044;15.080;2022-09-24T09:11:27;96025.69;;;17.93;51.46
53440;BME280;39333;47.044;15.080;2022-09-24T09:14:16;96029.91;;;17.99;50.96
53440;BME280;39333;47.044;15.080;2022-09-24T09:19:54;96030.16;;;17.84;50.08
53440;BME280;39333;47.044;15.080;2022-09-24T09:22:25;96026.91;;;17.68;50.31
53440;BME280;39333;47.044;15.080;2022-09-24T09:24:54;96026.81;;;17.73;50.61
53440;BME280;39333;47.044;15.080;2022-09-24T09:27:29;96015.41;;;18.00;51.91
53440;BME280;39333;47.044;15.080;2022-09-24T09:29:57;96021.16;;;18.53;50.02
53440;BME280;39333;47.044;15.080;2022-09-24T09:35:20;96020.22;;;19.54;47.23
53440;BME280;39333;47.044;15.080;2022-09-24T09:37:54;96020.81;;;20.09;46.96
53440;BME280;39333;47.044;15.080;2022-09-24T09:40:44;96018.69;;;20.51;43.81
53440;BME280;39333;47.044;15.080;2022-09-24T09:43:13;96017.66;;;20.69;44.75
53440;BME280;39333;47.044;15.080;2022-09-24T09:45:58;96017.34;;;20.09;47.06
53440;BME280;39333;47.044;15.080;2022-09-24T09:48:30;96007.13;;;19.75;46.05
53440;BME280;39333;47.044;15.080;2022-09-24T09:51:05;96010.16;;;19.82;43.37
53440;BME280;39333;47.044;15.080;2022-09-24T09:53:32;96000.31;;;19.55;45.07
53440;BME280;39333;47.044;15.080;2022-09-24T09:56:01;96001.47;;;19.27;43.82
53440;BME280;39333;47.044;15.080;2022-09-24T09:58:36;96004.69;;;18.74;45.61
53440;BME280;39333;47.044;15.080;2022-09-24T10:01:11;95997.78;;;19.22;45.27
53440;BME280;39333;47.044;15.080;2022-09-24T10:06:13;95992.63;;;19.84;43.50
53440;BME280;39333;47.044;15.080;2022-09-24T10:08:47;95985.16;;;20.04;42.35
53440;BME280;39333;47.044;15.080;2022-09-24T10:11:15;95986.75;;;20.58;42.83
53440;BME280;39333;47.044;15.080;2022-09-24T10:13:42;95986.25;;;21.04;45.16
53440;BME280;39333;47.044;15.080;2022-09-24T10:16:12;95993.63;;;21.47;42.44
53440;BME280;39333;47.044;15.080;2022-09-24T10:21:13;95977.56;;;22.11;46.17
53440;BME280;39333;47.044;15.080;2022-09-24T10:23:42;95977.25;;;22.21;42.62
53440;BME280;39333;47.044;15.080;2022-09-24T10:26:10;95991.13;;;21.59;41.17
53440;BME280;39333;47.044;15.080;2022-09-24T10:28:43;95989.03;;;21.56;46.06
53440;BME280;39333;47.044;15.080;2022-09-24T10:31:30;95986.63;;;21.97;42.75
53440;BME280;39333;47.044;15.080;2022-09-24T10:33:58;95979.63;;;22.14;48.70
53440;BME280;39333;47.044;15.080;2022-09-24T10:36:30;95977.88;;;22.64;44.49
53440;BME280;39333;47.044;15.080;2022-09-24T10:39:15;95975.81;;;22.15;41.65
53440;BME280;39333;47.044;15.080;2022-09-24T10:41:47;95980.47;;;21.88;43.70
53440;BME280;39333;47.044;15.080;2022-09-24T10:44:14;95972.38;;;21.88;44.52
53440;BME280;39333;47.044;15.080;2022-09-24T10:49:33;95970.84;;;22.81;42.50
53440;BME280;39333;47.044;15.080;2022-09-24T11:06:13;95944.69;;;23.64;41.90
53440;BME280;39333;47.044;15.080;2022-09-24T11:11:55;95957.63;;;21.69;40.62
53440;BME280;39333;47.044;15.080;2022-09-24T11:22:41;95940.00;;;21.37;41.58
53440;BME280;39333;47.044;15.080;2022-09-24T11:50:49;95943.75;;;21.01;42.23
53440;BME280;39333;47.044;15.080;2022-09-24T11:53:22;95943.84;;;20.79;40.52
53440;BME280;39333;47.044;15.080;2022-09-24T11:55:59;95931.88;;;20.45;41.91
53440;BME280;39333;47.044;15.080;2022-09-24T11:58:41;95933.19;;;20.65;42.39
53440;BME280;39333;47.044;15.080;2022-09-24T12:01:13;95930.75;;;21.12;41.03
53440;BME280;39333;47.044;15.080;2022-09-24T12:03:45;95920.59;;;21.00;40.96
53440;BME280;39333;47.044;15.080;2022-09-24T12:06:17;95926.63;;;20.97;41.52
53440;BME280;39333;47.044;15.080;2022-09-24T12:08:50;95930.59;;;20.12;42.11
53440;BME280;39333;47.044;15.080;2022-09-24T12:14:01;95919.47;;;20.75;41.88
53440;BME280;39333;47.044;15.080;2022-09-24T12:16:35;95918.00;;;20.60;41.44
53440;BME280;39333;47.044;15.080;2022-09-24T12:21:41;95921.00;;;20.68;42.26
53440;BME280;39333;47.044;15.080;2022-09-24T12:26:51;95918.81;;;20.70;42.47
53440;BME280;39333;47.044;15.080;2022-09-24T12:38:01;95920.09;;;20.81;41.46
53440;BME280;39333;47.044;15.080;2022-09-24T12:43:26;95910.38;;;20.63;40.75
53440;BME280;39333;47.044;15.080;2022-09-24T12:46:01;95924.38;;;20.03;41.40
53440;BME280;39333;47.044;15.080;2022-09-24T12:48:32;95923.06;;;19.91;41.96
53440;BME280;39333;47.044;15.080;2022-09-24T12:51:10;95909.38;;;19.79;43.00
53440;BME280;39333;47.044;15.080;2022-09-24T12:53:40;95910.16;;;19.80;41.54
53440;BME280;39333;47.044;15.080;2022-09-24T12:56:09;95912.78;;;19.71;41.97
53440;BME280;39333;47.044;15.080;2022-09-24T12:58:41;95914.28;;;19.55;41.85
53440;BME280;39333;47.044;15.080;2022-09-24T13:06:36;95916.59;;;19.70;42.43
53440;BME280;39333;47.044;15.080;2022-09-24T13:12:04;95912.69;;;19.76;42.33
53440;BME280;39333;47.044;15.080;2022-09-24T13:14:33;95906.63;;;19.71;42.56
53440;BME280;39333;47.044;15.080;2022-09-24T13:17:04;95906.31;;;19.50;42.78
53440;BME280;39333;47.044;15.080;2022-09-24T13:19:38;95898.44;;;19.53;42.47
53440;BME280;39333;47.044;15.080;2022-09-24T13:22:35;95901.91;;;20.07;43.43
53440;BME280;39333;47.044;15.080;2022-09-24T13:27:36;95894.00;;;20.42;40.85
53440;BME280;39333;47.044;15.080;2022-09-24T13:30:21;95885.38;;;20.71;41.29
53440;BME280;39333;47.044;15.080;2022-09-24T13:32:56;95888.22;;;20.83;40.98
53440;BME280;39333;47.044;15.080;2022-09-24T13:35:27;95884.22;;;20.54;41.60
53440;BME280;39333;47.044;15.080;2022-09-24T13:40:44;95875.34;;;20.63;40.69
53440;BME280;39333;47.044;15.080;2022-09-24T13:43:19;95860.03;;;20.32;41.25
53440;BME280;39333;47.044;15.080;2022-09-24T13:45:52;95857.28;;;20.54;41.81
53440;BME280;39333;47.044;15.080;2022-09-24T13:48:35;95869.69;;;20.81;40.52
53440;BME280;39333;47.044;15.080;2022-09-24T13:51:03;95868.88;;;20.64;41.11
53440;BME280;39333;47.044;15.080;2022-09-24T13:53:43;95882.78;;;20.48;41.20
53440;BME280;39333;47.044;15.080;2022-09-24T13:56:14;95889.03;;;20.35;41.26
53440;BME280;39333;47.044;15.080;2022-09-24T13:58:42;95879.94;;;20.14;41.68
53440;BME280;39333;47.044;15.080;2022-09-24T14:01:23;95881.94;;;20.00;41.45
53440;BME280;39333;47.044;15.080;2022-09-24T14:03:58;95878.88;;;20.32;41.65
53440;BME280;39333;47.044;15.080;2022-09-24T14:06:35;95882.94;;;20.52;41.18
53440;BME280;39333;47.044;15.080;2022-09-24T14:09:33;95881.34;;;20.51;41.41
53440;BME280;39333;47.044;15.080;2022-09-24T14:12:20;95887.88;;;20.58;40.84
53440;BME280;39333;47.044;15.080;2022-09-24T14:14:54;95889.78;;;20.58;40.69
53440;BME280;39333;47.044;15.080;2022-09-24T14:17:24;95893.09;;;20.64;40.96
53440;BME280;39333;47.044;15.080;2022-09-24T14:19:55;95880.75;;;20.63;39.86
53440;BME280;39333;47.044;15.080;2022-09-24T14:22:27;95883.25;;;20.42;40.42
53440;BME280;39333;47.044;15.080;2022-09-24T14:24:59;95883.94;;;20.25;40.35
53440;BME280;39333;47.044;15.080;2022-09-24T14:27:30;95869.50;;;20.21;40.87
53440;BME280;39333;47.044;15.080;2022-09-24T14:30:00;95872.88;;;20.35;41.01
53440;BME280;39333;47.044;15.080;2022-09-24T14:32:34;95873.00;;;20.21;40.05
53440;BME280;39333;47.044;15.080;2022-09-24T14:35:12;95871.59;;;20.24;41.57
53440;BME280;39333;47.044;15.080;2022-09-24T14:37:49;95871.41;;;20.20;43.05
53440;BME280;39333;47.044;15.080;2022-09-24T14:40:18;95862.16;;;20.04;42.79
53440;BME280;39333;47.044;15.080;2022-09-24T14:42:57;95872.22;;;20.21;41.92
53440;BME280;39333;47.044;15.080;2022-09-24T14:45:29;95864.16;;;19.90;42.34
53440;BME280;39333;47.044;15.080;2022-09-24T14:48:19;95868.78;;;19.98;42.00
53440;BME280;39333;47.044;15.080;2022-09-24T14:50:46;95867.84;;;20.03;43.15
53440;BME280;39333;47.044;15.080;2022-09-24T14:55:46;95864.66;;;19.92;43.29
53440;BME280;39333;47.044;15.080;2022-09-24T14:58:31;95875.31;;;20.06;42.97
53440;BME280;39333;47.044;15.080;2022-09-24T15:01:02;95870.13;;;20.09;42.58
53440;BME280;39333;47.044;15.080;2022-09-24T15:03:39;95873.13;;;20.08;42.79
53440;BME280;39333;47.044;15.080;2022-09-24T15:06:28;95880.53;;;19.71;41.89
53440;BME280;39333;47.044;15.080;2022-09-24T15:09:04;95865.72;;;19.38;43.36
53440;BME280;39333;47.044;15.080;2022-09-24T15:11:36;95871.56;;;19.17;43.54
53440;BME280;39333;47.044;15.080;2022-09-24T15:16:43;95874.75;;;19.19;43.57
53440;BME280;39333;47.044;15.080;2022-09-24T15:21:47;95868.03;;;19.08;44.38
53440;BME280;39333;47.044;15.080;2022-09-24T15:24:16;95864.56;;;19.08;44.85